Time;durP1;ratioP1;P1;durP2;ratioP2;P2;SDS_P1;SDS_P2;PMS_P1;PMS_P2;Temp;Humidity;BMP_temperature;BMP_pressure;BME280_temperature;BME280_humidity;BME280_pressure;Samples;Min_cycle;Max_cycle;Signal;HPM_P1;HPM_P2
2022/04/17 00:00:40;;;;;;;0.30;0.30;;;6.00;80.10;;;;;;5033914;28;20466;-78
2022/04/17 00:03:07;;;;;;;0.30;0.30;;;5.90;79.70;;;;;;5033682;28;20482;-78
2022/04/17 00:05:34;;;;;;;1.77;0.63;;;6.00;79.80;;;;;;5033814;28;20451;-78
2022/04/17 00:08:02;;;;;;;0.30;0.27;;;5.90;79.80;;;;;;5033908;28;20455;-78
2022/04/17 00:10:30;;;;;;;0.30;0.30;;;6.00;80.10;;;;;;5033713;28;20454;-78
2022/04/17 00:12:57;;;;;;;0.40;0.40;;;6.00;79.50;;;;;;5033488;28;20438;-78
2022/04/17 00:15:24;;;;;;;0.30;0.20;;;6.00;79.90;;;;;;5033768;28;20953;-78
2022/04/17 00:17:51;;;;;;;0.30;0.30;;;6.00;79.90;;;;;;5033700;28;20455;-78
2022/04/17 00:20:18;;;;;;;1.03;0.80;;;5.90;80.10;;;;;;5033322;28;20449;-78
2022/04/17 00:22:45;;;;;;;0.63;0.57;;;5.90;80.60;;;;;;5033732;28;20451;-78
2022/04/17 00:25:12;;;;;;;0.30;0.30;;;5.90;80.40;;;;;;5033149;28;21005;-78
2022/04/17 00:27:40;;;;;;;0.50;0.40;;;5.80;80.50;;;;;;5033498;28;21005;-78
2022/04/17 00:30:09;;;;;;;0.30;0.30;;;5.80;81.00;;;;;;5033699;28;20457;-78
2022/04/17 00:32:36;;;;;;;0.50;0.50;;;5.80;81.20;;;;;;5033757;28;20472;-78
2022/04/17 00:35:04;;;;;;;0.30;0.27;;;5.70;81.60;;;;;;5033551;28;20446;-78
2022/04/17 00:37:31;;;;;;;0.40;0.30;;;5.70;81.80;;;;;;5033251;28;20458;-78
2022/04/17 00:39:58;;;;;;;0.80;0.80;;;5.60;81.70;;;;;;5032879;28;20965;-78
2022/04/17 00:42:25;;;;;;;0.30;0.27;;;5.70;81.80;;;;;;5033426;28;20462;-78
2022/04/17 00:44:53;;;;;;;0.30;0.30;;;5.60;81.90;;;;;;5032747;28;20989;-78
2022/04/17 00:47:20;;;;;;;0.50;0.30;;;5.60;82.10;;;;;;5034648;28;20450;-78
2022/04/17 00:49:47;;;;;;;0.30;0.30;;;5.70;82.10;;;;;;5037125;28;20450;-78
2022/04/17 00:52:15;;;;;;;0.40;0.33;;;5.60;82.00;;;;;;5036947;28;20553;-78
2022/04/17 00:54:44;;;;;;;0.33;0.33;;;5.60;82.20;;;;;;5036936;28;20443;-78
2022/04/17 00:57:12;;;;;;;0.50;0.50;;;5.60;82.40;;;;;;5036981;28;20447;-78
2022/04/17 00:59:41;;;;;;;0.30;0.30;;;5.60;82.30;;;;;;5036855;28;20450;-78
2022/04/17 01:02:10;;;;;;;0.30;0.30;;;5.60;82.50;;;;;;5036772;28;20466;-78
2022/04/17 01:04:37;;;;;;;0.30;0.30;;;5.60;82.50;;;;;;5036758;28;20552;-78
2022/04/17 01:07:04;;;;;;;0.30;0.27;;;5.60;82.70;;;;;;5036457;28;20454;-78
2022/04/17 01:09:32;;;;;;;0.30;0.30;;;5.50;83.10;;;;;;5036730;28;20457;-78
2022/04/17 01:12:00;;;;;;;0.37;0.33;;;5.50;83.00;;;;;;5036710;28;20473;-78
2022/04/17 01:14:27;;;;;;;0.30;0.30;;;5.50;83.10;;;;;;5036624;28;20453;-78
2022/04/17 01:16:54;;;;;;;0.30;0.30;;;5.40;83.40;;;;;;5036608;28;20459;-78
2022/04/17 01:19:23;;;;;;;0.40;0.40;;;5.40;83.70;;;;;;5036749;28;20802;-78
2022/04/17 01:21:53;;;;;;;0.30;0.27;;;5.30;83.50;;;;;;5036351;28;20484;-78
2022/04/17 01:27:05;;;;;;;0.30;0.30;;;5.30;83.50;;;;;;5036635;28;20409;-78
2022/04/17 01:29:38;;;;;;;0.30;0.30;;;5.20;84.00;;;;;;5036283;28;20451;-78
2022/04/17 01:32:07;;;;;;;0.50;0.50;;;5.20;84.00;;;;;;5036373;28;20554;-77
2022/04/17 01:34:35;;;;;;;0.50;0.50;;;5.20;83.90;;;;;;5036256;28;20446;-78
2022/04/17 01:37:04;;;;;;;0.30;0.20;;;5.20;84.20;;;;;;5035910;28;20973;-78
2022/04/17 01:39:32;;;;;;;0.40;0.30;;;5.20;84.30;;;;;;5036097;28;20446;-78
2022/04/17 01:42:00;;;;;;;0.40;0.30;;;5.20;84.50;;;;;;5035832;28;20485;-78
2022/04/17 01:44:28;;;;;;;0.40;0.30;;;5.10;84.90;;;;;;5035652;28;20553;-78
2022/04/17 01:46:55;;;;;;;0.50;0.50;;;5.10;85.00;;;;;;5035866;28;20447;-77
2022/04/17 01:49:23;;;;;;;0.63;0.43;;;5.00;85.50;;;;;;5035676;28;20450;-77
2022/04/17 01:51:51;;;;;;;0.30;0.27;;;4.90;86.30;;;;;;5035891;28;20502;-78
2022/04/17 01:54:20;;;;;;;0.30;0.30;;;4.90;87.80;;;;;;5035667;28;20953;-78
2022/04/17 01:56:48;;;;;;;0.30;0.30;;;4.80;87.50;;;;;;5035576;28;20954;-78
2022/04/17 01:59:16;;;;;;;0.30;0.30;;;4.90;86.60;;;;;;5034603;28;20540;-78
2022/04/17 02:01:43;;;;;;;0.70;0.57;;;4.80;87.40;;;;;;5035579;28;20463;-78
2022/04/17 02:04:10;;;;;;;0.87;0.40;;;4.80;87.10;;;;;;5035543;28;20541;-78
2022/04/17 02:06:40;;;;;;;0.40;0.40;;;4.80;87.70;;;;;;5036017;28;20426;-78
2022/04/17 02:09:08;;;;;;;0.30;0.30;;;4.70;87.80;;;;;;5036445;28;20446;-78
2022/04/17 02:11:38;;;;;;;0.30;0.30;;;4.60;88.00;;;;;;5036127;28;20474;-78
2022/04/17 02:14:05;;;;;;;0.30;0.30;;;4.70;88.10;;;;;;5035975;28;20497;-78
2022/04/17 02:16:32;;;;;;;0.30;0.30;;;4.70;89.30;;;;;;5036134;28;20454;-78
2022/04/17 02:19:00;;;;;;;0.40;0.30;;;4.60;89.50;;;;;;5035890;28;20449;-78
2022/04/17 02:21:28;;;;;;;0.30;0.30;;;4.60;89.90;;;;;;5035844;28;20474;-77
2022/04/17 02:23:55;;;;;;;0.30;0.30;;;4.60;90.50;;;;;;5035890;28;20490;-77
2022/04/17 02:26:22;;;;;;;1.80;0.60;;;4.60;91.10;;;;;;5035405;28;20578;-77
2022/04/17 02:28:50;;;;;;;0.47;0.40;;;4.50;91.00;;;;;;5036066;28;20455;-78
2022/04/17 02:31:18;;;;;;;0.30;0.30;;;4.50;90.80;;;;;;5035823;28;20553;-77
2022/04/17 02:33:45;;;;;;;0.40;0.30;;;4.50;91.00;;;;;;5035593;28;20435;-77
2022/04/17 02:36:11;;;;;;;0.63;0.63;;;4.50;91.50;;;;;;5035374;28;20942;-77
2022/04/17 02:38:38;;;;;;;0.30;0.20;;;4.40;90.40;;;;;;5035458;28;20811;-77
2022/04/17 02:41:05;;;;;;;1.27;0.40;;;4.40;90.60;;;;;;5035624;28;20474;-77
2022/04/17 02:43:32;;;;;;;0.30;0.30;;;4.40;90.70;;;;;;5035180;28;20478;-77
2022/04/17 02:46:00;;;;;;;0.40;0.40;;;4.40;90.40;;;;;;5035378;28;20488;-78
2022/04/17 02:48:27;;;;;;;0.60;0.50;;;4.30;90.50;;;;;;5035509;28;20454;-78
2022/04/17 02:50:55;;;;;;;0.30;0.30;;;4.30;90.70;;;;;;5035082;28;20463;-77
2022/04/17 02:53:24;;;;;;;0.30;0.30;;;4.20;90.80;;;;;;5034985;28;20943;-77
2022/04/17 02:55:51;;;;;;;0.30;0.30;;;4.20;90.80;;;;;;5034827;28;20454;-78
2022/04/17 02:58:17;;;;;;;0.40;0.40;;;4.20;90.90;;;;;;5034298;28;20962;-77
2022/04/17 03:06:14;;;;;;;0.30;0.27;;;4.10;91.30;;;;;;5034519;28;20419;-77
2022/04/17 03:08:42;;;;;;;0.30;0.30;;;4.10;91.60;;;;;;5034525;28;20469;-77
2022/04/17 03:11:09;;;;;;;0.30;0.30;;;4.10;91.50;;;;;;5033906;28;20836;-77
2022/04/17 03:13:36;;;;;;;0.30;0.30;;;4.10;91.70;;;;;;5034390;28;20447;-77
2022/04/17 03:16:03;;;;;;;1.17;0.60;;;4.10;91.90;;;;;;5034489;28;20450;-78
2022/04/17 03:18:31;;;;;;;0.30;0.30;;;4.10;92.00;;;;;;5034367;28;20442;-77
2022/04/17 03:20:59;;;;;;;0.30;0.30;;;4.10;92.40;;;;;;5033998;28;20929;-77
2022/04/17 03:23:26;;;;;;;0.30;0.30;;;4.00;92.20;;;;;;5034187;28;20454;-78
2022/04/17 03:25:52;;;;;;;0.50;0.50;;;4.00;92.50;;;;;;5034347;28;20489;-77
2022/04/17 03:28:19;;;;;;;0.30;0.30;;;4.00;92.70;;;;;;5034196;28;20816;-78
2022/04/17 03:30:46;;;;;;;0.50;0.50;;;4.00;92.80;;;;;;5033786;28;20475;-78
2022/04/17 03:33:13;;;;;;;0.30;0.30;;;4.00;93.20;;;;;;5033982;28;20450;-78
2022/04/17 03:35:41;;;;;;;1.13;0.57;;;4.00;92.60;;;;;;5034038;28;20442;-77
2022/04/17 03:38:09;;;;;;;0.50;0.50;;;4.00;93.50;;;;;;5034042;28;20447;-77
2022/04/17 03:40:36;;;;;;;0.30;0.30;;;4.00;92.70;;;;;;5034040;28;20443;-78
2022/04/17 03:43:02;;;;;;;0.67;0.67;;;3.90;92.60;;;;;;5033605;28;20860;-78
2022/04/17 03:45:29;;;;;;;0.40;0.30;;;3.90;92.70;;;;;;5034080;28;20478;-78
2022/04/17 03:47:56;;;;;;;0.30;0.27;;;3.90;93.30;;;;;;5034084;28;20450;-78
2022/04/17 03:50:23;;;;;;;0.30;0.30;;;3.90;93.80;;;;;;5033677;28;20455;-78
2022/04/17 03:52:51;;;;;;;0.30;0.30;;;3.90;93.90;;;;;;5033377;28;20958;-78
2022/04/17 03:55:18;;;;;;;0.50;0.37;;;3.90;94.00;;;;;;5033859;28;20439;-77
2022/04/17 03:57:44;;;;;;;0.30;0.30;;;3.80;93.90;;;;;;5033374;28;20934;-77
2022/04/17 04:00:13;;;;;;;0.50;0.50;;;3.80;94.10;;;;;;5033396;28;20950;-78
2022/04/17 04:02:40;;;;;;;0.80;0.80;;;3.70;94.00;;;;;;5033597;28;20475;-78
2022/04/17 04:05:09;;;;;;;0.30;0.30;;;3.70;94.20;;;;;;5033504;28;20532;-78
2022/04/17 04:07:36;;;;;;;0.30;0.30;;;3.70;94.10;;;;;;5033716;28;20474;-78
2022/04/17 04:10:05;;;;;;;0.50;0.40;;;3.70;94.20;;;;;;5033678;28;20442;-78
2022/04/17 04:12:32;;;;;;;0.30;0.30;;;3.70;94.30;;;;;;5033445;28;20462;-78
2022/04/17 04:14:59;;;;;;;0.30;0.20;;;3.80;93.90;;;;;;5033553;28;20458;-77
2022/04/17 04:17:26;;;;;;;0.30;0.30;;;3.80;94.10;;;;;;5033742;28;20455;-78
2022/04/17 04:19:53;;;;;;;0.30;0.20;;;3.80;93.80;;;;;;5033733;28;20461;-78
2022/04/17 04:22:21;;;;;;;0.60;0.40;;;3.80;94.40;;;;;;5035140;28;20977;-78
2022/04/17 04:24:47;;;;;;;0.30;0.30;;;3.80;94.20;;;;;;5038107;28;20565;-78
2022/04/17 04:30:00;;;;;;;0.37;0.33;;;3.70;93.90;;;;;;5038430;28;20410;-78
2022/04/17 04:32:27;;;;;;;0.40;0.40;;;3.70;94.30;;;;;;5037955;28;20462;-78
2022/04/17 04:34:58;;;;;;;1.00;0.90;;;3.60;94.70;;;;;;5037827;28;20938;-78
2022/04/17 04:37:25;;;;;;;0.50;0.50;;;3.60;94.60;;;;;;5037671;28;20941;-78
2022/04/17 04:39:52;;;;;;;0.67;0.43;;;3.70;94.30;;;;;;5038453;28;20465;-77
2022/04/17 04:42:20;;;;;;;0.30;0.30;;;3.70;94.40;;;;;;5037748;28;20522;-78
2022/04/17 04:46:06;;;;;;;0.30;0.30;;;3.70;94.40;;;;;;5037803;28;20544;-78
2022/04/17 04:47:34;;;;;;;0.67;0.67;;;3.70;93.90;;;;;;5037324;28;20533;-78
2022/04/17 04:50:01;;;;;;;0.40;0.40;;;3.80;93.70;;;;;;5037782;28;20937;-78
2022/04/17 04:52:28;;;;;;;0.30;0.30;;;3.80;93.70;;;;;;5038117;28;20462;-78
2022/04/17 04:54:55;;;;;;;0.40;0.40;;;3.80;93.70;;;;;;5037884;28;20447;-78
2022/04/17 04:57:23;;;;;;;0.30;0.30;;;3.80;93.80;;;;;;5037899;28;20473;-78
2022/04/17 04:59:50;;;;;;;0.30;0.20;;;3.80;93.80;;;;;;5038129;28;20442;-78
2022/04/17 05:02:17;;;;;;;0.30;0.30;;;3.80;94.10;;;;;;5037375;28;20981;-78
2022/04/17 05:04:44;;;;;;;0.50;0.40;;;3.80;94.60;;;;;;5037754;28;20478;-78
2022/04/17 05:07:10;;;;;;;0.40;0.30;;;3.80;95.00;;;;;;5037861;28;20462;-78
2022/04/17 05:09:37;;;;;;;0.30;0.30;;;3.80;95.60;;;;;;5037473;28;20458;-78
2022/04/17 05:12:05;;;;;;;0.30;0.20;;;3.90;96.30;;;;;;5037043;28;20969;-78
2022/04/17 05:14:33;;;;;;;0.40;0.40;;;3.90;96.10;;;;;;5036796;28;20478;-78
2022/04/17 05:17:00;;;;;;;0.63;0.60;;;3.90;96.30;;;;;;5036564;28;20447;-78
2022/04/17 05:19:27;;;;;;;0.40;0.40;;;3.90;95.20;;;;;;5036202;28;20972;-78
2022/04/17 05:21:57;;;;;;;0.40;0.40;;;3.90;95.20;;;;;;5036356;28;20566;-78
2022/04/17 05:24:25;;;;;;;0.30;0.30;;;3.90;95.00;;;;;;5036975;28;20509;-78
2022/04/17 05:26:52;;;;;;;0.30;0.20;;;4.00;94.30;;;;;;5037073;28;20430;-78
2022/04/17 05:29:19;;;;;;;0.50;0.50;;;4.10;94.20;;;;;;5037327;28;20474;-78
2022/04/17 05:31:48;;;;;;;1.57;0.63;;;4.10;94.30;;;;;;5036982;28;20462;-78
2022/04/17 05:34:15;;;;;;;0.30;0.30;;;4.20;94.30;;;;;;5036683;28;20477;-78
2022/04/17 05:36:42;;;;;;;0.40;0.30;;;4.20;94.60;;;;;;5036981;28;20438;-78
2022/04/17 05:39:09;;;;;;;0.50;0.33;;;4.30;93.80;;;;;;5036664;28;20439;-78
2022/04/17 05:41:36;;;;;;;0.50;0.50;;;4.40;93.80;;;;;;5036477;28;20505;-78
2022/04/17 05:44:03;;;;;;;0.40;0.33;;;4.60;93.90;;;;;;5036366;28;21006;-78
2022/04/17 05:46:35;;;;;;;0.30;0.30;;;4.80;93.70;;;;;;5036460;28;20486;-78
2022/04/17 05:49:03;;;;;;;0.30;0.30;;;4.90;93.20;;;;;;5036624;28;20435;-78
2022/04/17 05:51:30;;;;;;;0.30;0.30;;;5.20;92.90;;;;;;5036285;28;20470;-78
2022/04/17 05:53:58;;;;;;;0.67;0.33;;;5.40;92.20;;;;;;5036444;28;20462;-78
2022/04/17 05:56:25;;;;;;;0.30;0.30;;;5.50;91.80;;;;;;5036094;28;21021;-78
2022/04/17 05:58:51;;;;;;;0.70;0.40;;;5.80;91.30;;;;;;5036422;28;20458;-78
2022/04/17 06:01:18;;;;;;;0.30;0.30;;;6.20;90.70;;;;;;5035608;28;20470;-78
2022/04/17 06:03:45;;;;;;;0.50;0.50;;;6.30;90.60;;;;;;5035792;28;20459;-78
2022/04/17 06:06:13;;;;;;;0.40;0.40;;;6.60;90.70;;;;;;5036027;28;20493;-78
2022/04/17 06:08:40;;;;;;;0.50;0.50;;;7.00;88.40;;;;;;5036185;28;20438;-78
2022/04/17 06:11:07;;;;;;;0.50;0.50;;;7.30;87.20;;;;;;5036028;28;20486;-78
2022/04/17 06:13:33;;;;;;;0.30;0.27;;;7.40;86.50;;;;;;5035844;28;20450;-78
2022/04/17 06:16:00;;;;;;;2.10;0.40;;;7.50;87.00;;;;;;5035804;28;20965;-78
2022/04/17 06:18:27;;;;;;;0.73;0.53;;;7.50;84.80;;;;;;5036467;28;20450;-78
2022/04/17 06:20:53;;;;;;;0.40;0.40;;;7.60;84.60;;;;;;5036536;28;20470;-78
2022/04/17 06:23:22;;;;;;;0.83;0.43;;;7.60;83.70;;;;;;5036152;28;20442;-78
2022/04/17 06:25:48;;;;;;;0.30;0.20;;;7.70;86.50;;;;;;5035875;28;20475;-78
2022/04/17 06:28:15;;;;;;;0.40;0.30;;;8.10;83.10;;;;;;5035326;28;20451;-78
2022/04/17 06:30:42;;;;;;;0.50;0.50;;;8.60;82.20;;;;;;5035066;28;20470;-79
2022/04/17 06:33:09;;;;;;;1.73;1.07;;;9.20;79.70;;;;;;5034786;28;20977;-79
2022/04/17 06:35:35;;;;;;;0.40;0.40;;;9.60;78.40;;;;;;5034759;28;20447;-80
2022/04/17 06:38:05;;;;;;;0.37;0.33;;;10.00;76.60;;;;;;5035076;28;20450;-79
2022/04/17 06:40:36;;;;;;;0.60;0.37;;;10.40;73.70;;;;;;5035416;28;20489;-80
2022/04/17 06:43:07;;;;;;;0.40;0.30;;;10.90;73.00;;;;;;5034875;28;20430;-79
2022/04/17 06:45:35;;;;;;;0.30;0.30;;;11.40;71.10;;;;;;5034035;28;20500;-80
2022/04/17 06:48:12;;;;;;;1.83;0.50;;;11.30;67.60;;;;;;5034797;28;20426;-79
2022/04/17 06:50:38;;;;;;;0.70;0.70;;;11.20;68.40;;;;;;5034628;28;20434;-79
2022/04/17 06:53:05;;;;;;;0.40;0.40;;;11.80;66.50;;;;;;5034295;28;20961;-78
2022/04/17 06:55:34;;;;;;;0.50;0.50;;;11.90;64.70;;;;;;5034593;28;20446;-78
2022/04/17 06:58:00;;;;;;;0.40;0.30;;;12.00;62.90;;;;;;5034560;28;20461;-79
2022/04/17 07:00:27;;;;;;;0.40;0.40;;;12.40;63.10;;;;;;5034374;28;20450;-78
2022/04/17 07:02:54;;;;;;;0.87;0.63;;;12.80;61.30;;;;;;5034061;28;20451;-78
2022/04/17 07:05:21;;;;;;;0.40;0.40;;;13.30;59.50;;;;;;5034258;28;20485;-79
2022/04/17 07:07:56;;;;;;;1.27;0.40;;;13.60;58.60;;;;;;5034570;28;20454;-78
2022/04/17 07:10:23;;;;;;;0.60;0.53;;;14.20;57.30;;;;;;5034386;28;20434;-79
2022/04/17 07:12:52;;;;;;;1.80;0.50;;;14.30;57.40;;;;;;5034336;28;20454;-79
2022/04/17 07:15:19;;;;;;;0.70;0.67;;;14.50;55.30;;;;;;5034062;28;20451;-79
2022/04/17 07:17:47;;;;;;;2.90;0.90;;;14.50;54.60;;;;;;5033797;28;20876;-79
2022/04/17 07:20:15;;;;;;;1.70;0.70;;;14.40;55.30;;;;;;5034017;28;20454;-78
2022/04/17 07:22:42;;;;;;;0.93;0.57;;;14.80;54.90;;;;;;5033981;28;20508;-78
2022/04/17 07:25:11;;;;;;;0.57;0.50;;;16.20;52.10;;;;;;5033646;28;20930;-78
2022/04/17 07:27:39;;;;;;;3.33;0.70;;;16.50;50.20;;;;;;5033993;28;20544;-78
2022/04/17 07:30:12;;;;;;;1.23;0.50;;;17.10;49.30;;;;;;5033959;28;20450;-78
2022/04/17 07:32:40;;;;;;;1.30;0.63;;;17.90;48.30;;;;;;5033871;28;20470;-79
2022/04/17 07:35:08;;;;;;;0.47;0.47;;;18.60;46.00;;;;;;5033640;28;20438;-78
2022/04/17 07:37:35;;;;;;;0.73;0.73;;;19.60;45.00;;;;;;5033839;28;20461;-78
2022/04/17 07:40:02;;;;;;;0.70;0.70;;;20.00;43.90;;;;;;5034022;28;20443;-78
2022/04/17 07:42:29;;;;;;;0.80;0.80;;;19.80;42.70;;;;;;5033719;28;20465;-78
2022/04/17 07:44:55;;;;;;;0.90;0.63;;;18.80;42.80;;;;;;5033533;28;20492;-79
2022/04/17 07:47:24;;;;;;;0.90;0.67;;;18.80;42.80;;;;;;5033608;28;20489;-79
2022/04/17 07:49:51;;;;;;;0.80;0.80;;;18.90;43.20;;;;;;5033717;28;20446;-79
2022/04/17 07:52:18;;;;;;;0.80;0.60;;;19.10;42.30;;;;;;5033587;28;21004;-78
2022/04/17 07:54:44;;;;;;;0.43;0.43;;;19.10;41.80;;;;;;5033614;28;20449;-78
2022/04/17 07:57:14;;;;;;;0.50;0.50;;;19.20;41.90;;;;;;5033258;28;20797;-79
2022/04/17 07:59:41;;;;;;;1.93;0.63;;;19.20;41.40;;;;;;5033566;28;20540;-78
2022/04/17 08:02:22;;;;;;;1.00;0.90;;;19.40;40.80;;;;;;5033429;28;20478;-78
2022/04/17 08:04:50;;;;;;;1.13;1.13;;;19.90;40.50;;;;;;5033514;28;20434;-79
2022/04/17 08:07:17;;;;;;;1.02;0.80;;;20.50;40.90;;;;;;5033374;28;20219;-79
2022/04/17 08:09:44;;;;;;;1.00;0.60;;;21.60;38.30;;;;;;5033422;28;20204;-79
2022/04/17 08:12:10;;;;;;;0.63;0.63;;;22.10;37.60;;;;;;5033370;28;20223;-78
2022/04/17 08:14:37;;;;;;;0.93;0.70;;;22.30;36.50;;;;;;5033138;28;20203;-79
2022/04/17 08:17:04;;;;;;;0.90;0.70;;;22.40;36.70;;;;;;5033343;28;20196;-78
2022/04/17 08:19:32;;;;;;;0.80;0.70;;;22.20;36.80;;;;;;5033054;28;20235;-78
2022/04/17 08:22:00;;;;;;;1.60;0.70;;;22.00;35.30;;;;;;5032978;28;20251;-78
2022/04/17 08:24:29;;;;;;;0.60;0.60;;;22.00;35.80;;;;;;5033288;28;20214;-78
2022/04/17 08:26:56;;;;;;;1.25;0.77;;;21.70;37.10;;;;;;5033202;28;20297;-78
2022/04/17 08:29:22;;;;;;;0.88;0.88;;;21.10;36.20;;;;;;5033322;28;20286;-79
2022/04/17 08:31:49;;;;;;;0.70;0.52;;;20.80;37.30;;;;;;5033134;28;20227;-78
2022/04/17 08:34:16;;;;;;;1.48;0.70;;;21.00;36.80;;;;;;5033095;28;20211;-78
2022/04/17 08:36:42;;;;;;;1.10;0.70;;;21.00;36.40;;;;;;5033078;28;20227;-78
2022/04/17 08:39:11;;;;;;;1.70;0.75;;;21.20;36.30;;;;;;5033084;28;20261;-78
2022/04/17 08:41:37;;;;;;;0.80;0.80;;;21.80;36.10;;;;;;5033075;28;20238;-79
2022/04/17 08:44:05;;;;;;;1.60;1.00;;;22.10;36.10;;;;;;5032910;28;20238;-78
2022/04/17 08:46:31;;;;;;;0.50;0.50;;;22.10;35.90;;;;;;5032929;28;20246;-78
2022/04/17 08:48:58;;;;;;;0.50;0.50;;;21.70;35.10;;;;;;5033038;28;20204;-78
2022/04/17 08:51:27;;;;;;;0.90;0.70;;;20.40;35.80;;;;;;5032932;28;20478;-78
2022/04/17 08:53:58;;;;;;;0.70;0.70;;;19.90;37.70;;;;;;5033171;28;20830;-78
2022/04/17 08:56:26;;;;;;;0.60;0.60;;;19.70;37.80;;;;;;5033385;28;20510;-78
2022/04/17 08:58:53;;;;;;;0.70;0.50;;;19.50;38.30;;;;;;5032647;28;20442;-78
2022/04/17 09:01:20;;;;;;;0.70;0.70;;;19.40;38.20;;;;;;5032798;28;20466;-78
2022/04/17 09:03:48;;;;;;;0.60;0.60;;;19.50;39.50;;;;;;5033152;28;20437;-78
2022/04/17 09:06:19;;;;;;;0.57;0.57;;;19.80;38.40;;;;;;5032782;28;20579;-78
2022/04/17 09:08:59;;;;;;;0.40;0.40;;;20.00;37.00;;;;;;5035138;28;20484;-78
2022/04/17 09:11:28;;;;;;;0.80;0.40;;;20.10;36.80;;;;;;5036481;28;20470;-78
2022/04/17 09:13:56;;;;;;;0.90;0.50;;;20.10;36.20;;;;;;5036795;28;20426;-79
2022/04/17 09:16:27;;;;;;;0.63;0.63;;;20.30;36.80;;;;;;5036117;28;20445;-79
2022/04/17 09:18:54;;;;;;;0.50;0.50;;;20.20;34.50;;;;;;5036351;28;20451;-79
2022/04/17 09:21:33;;;;;;;0.50;0.50;;;19.90;35.80;;;;;;5036285;28;20481;-79
2022/04/17 09:24:17;;;;;;;1.53;0.53;;;19.80;36.20;;;;;;5036196;28;20508;-79
2022/04/17 09:26:56;;;;;;;0.40;0.40;;;19.90;36.30;;;;;;5036177;28;20486;-79
2022/04/17 09:29:24;;;;;;;0.50;0.50;;;19.90;35.50;;;;;;5036244;28;20441;-79
2022/04/17 09:31:58;;;;;;;0.90;0.50;;;19.40;36.20;;;;;;5036239;28;20482;-79
2022/04/17 09:34:26;;;;;;;0.80;0.70;;;19.20;35.40;;;;;;5036315;28;20464;-79
2022/04/17 09:36:56;;;;;;;0.43;0.43;;;19.70;36.40;;;;;;5036649;28;20438;-79
2022/04/17 09:39:22;;;;;;;0.77;0.73;;;20.00;35.80;;;;;;5036199;28;20435;-79
2022/04/17 09:41:55;;;;;;;1.23;0.50;;;20.10;34.80;;;;;;5035973;28;20474;-79
2022/04/17 09:44:49;;;;;;;2.13;0.50;;;20.20;35.20;;;;;;5035687;28;20489;-79
2022/04/17 09:47:19;;;;;;;0.50;0.40;;;20.50;35.60;;;;;;5035944;28;20484;-79
2022/04/17 09:49:58;;;;;;;1.30;0.70;;;21.00;35.10;;;;;;5036567;28;20478;-79
2022/04/17 09:52:26;;;;;;;0.73;0.57;;;20.90;34.30;;;;;;5035466;28;20985;-79
2022/04/17 09:54:54;;;;;;;0.60;0.60;;;20.90;34.90;;;;;;5035883;28;20445;-79
2022/04/17 09:57:29;;;;;;;0.40;0.40;;;20.70;33.20;;;;;;5035744;28;20446;-79
2022/04/17 09:59:56;;;;;;;0.40;0.40;;;20.10;33.80;;;;;;5035756;28;20849;-80
2022/04/17 10:02:24;;;;;;;0.50;0.50;;;19.90;33.40;;;;;;5035276;28;20528;-79
2022/04/17 10:04:53;;;;;;;0.43;0.40;;;19.40;33.00;;;;;;5035367;28;20439;-76
2022/04/17 10:07:22;;;;;;;0.70;0.60;;;18.60;33.90;;;;;;5035742;28;20493;-77
2022/04/17 10:09:50;;;;;;;0.50;0.50;;;18.30;34.60;;;;;;5035478;28;20457;-76
2022/04/17 10:12:19;;;;;;;0.97;0.50;;;18.30;35.50;;;;;;5035458;28;20478;-77
2022/04/17 10:14:50;;;;;;;0.50;0.50;;;18.30;34.20;;;;;;5035508;28;20555;-76
2022/04/17 10:17:21;;;;;;;0.97;0.60;;;18.50;36.50;;;;;;5035470;28;20438;-76
2022/04/17 10:19:49;;;;;;;0.90;0.50;;;18.40;35.10;;;;;;5034271;28;20492;-76
2022/04/17 10:22:18;;;;;;;0.40;0.33;;;18.40;35.70;;;;;;5035184;28;20524;-77
2022/04/17 10:24:51;;;;;;;0.60;0.40;;;18.60;35.30;;;;;;5035307;28;20788;-77
2022/04/17 10:27:21;;;;;;;0.53;0.50;;;18.80;35.70;;;;;;5035098;28;20467;-77
2022/04/17 10:29:54;;;;;;;0.40;0.40;;;19.30;35.90;;;;;;5035154;28;20435;-77
2022/04/17 10:32:52;;;;;;;0.93;0.50;;;19.50;32.80;;;;;;5034992;28;20817;-77
2022/04/17 10:35:26;;;;;;;0.83;0.67;;;19.40;33.40;;;;;;5035085;28;20436;-77
2022/04/17 10:38:20;;;;;;;0.63;0.50;;;19.10;33.10;;;;;;5034965;28;20488;-77
2022/04/17 10:40:53;;;;;;;0.60;0.40;;;19.10;32.80;;;;;;5035355;28;20473;-79
2022/04/17 10:43:20;;;;;;;0.60;0.50;;;19.00;32.70;;;;;;5034635;28;20434;-80
2022/04/17 10:46:09;;;;;;;0.40;0.40;;;18.80;32.50;;;;;;5034887;28;20506;-76
2022/04/17 10:48:43;;;;;;;0.53;0.43;;;18.80;32.20;;;;;;5034451;28;20509;-77
2022/04/17 10:51:15;;;;;;;0.37;0.37;;;18.50;33.00;;;;;;5034676;28;20532;-77
2022/04/17 10:53:51;;;;;;;0.40;0.30;;;18.50;34.20;;;;;;5034699;28;20435;-80
2022/04/17 10:56:19;;;;;;;1.23;0.40;;;18.60;32.80;;;;;;5035489;28;20445;-77
2022/04/17 10:58:52;;;;;;;0.60;0.40;;;18.90;32.80;;;;;;5034753;28;20450;-80
2022/04/17 11:01:54;;;;;;;0.53;0.53;;;18.60;32.50;;;;;;5034445;28;20462;-77
2022/04/17 11:04:24;;;;;;;0.43;0.43;;;18.70;32.80;;;;;;5034147;28;20946;-77
2022/04/17 11:07:15;;;;;;;0.70;0.67;;;18.50;33.50;;;;;;5034902;28;20470;-77
2022/04/17 11:09:44;;;;;;;0.37;0.33;;;18.20;33.20;;;;;;5033881;28;20447;-77
2022/04/17 11:12:26;;;;;;;0.60;0.40;;;17.60;33.90;;;;;;5034253;28;20475;-81
2022/04/17 11:14:55;;;;;;;0.40;0.30;;;16.90;34.50;;;;;;5034473;28;20447;-80
2022/04/17 11:17:24;;;;;;;0.73;0.60;;;16.50;35.80;;;;;;5033914;28;20473;-81
2022/04/17 11:19:53;;;;;;;0.40;0.40;;;16.30;35.90;;;;;;5034301;28;20446;-80
2022/04/17 11:22:20;;;;;;;0.40;0.40;;;16.10;36.40;;;;;;5034000;28;21049;-78
2022/04/17 11:25:07;;;;;;;0.80;0.40;;;15.90;35.60;;;;;;5034362;28;20443;-81
2022/04/17 11:27:38;;;;;;;2.10;0.50;;;15.60;34.30;;;;;;5034060;28;20497;-80
2022/04/17 11:30:07;;;;;;;0.40;0.40;;;15.50;35.30;;;;;;5033948;28;20817;-76
2022/04/17 11:32:50;;;;;;;0.40;0.40;;;15.30;33.70;;;;;;5034021;28;20503;-81
2022/04/17 11:35:20;;;;;;;0.40;0.30;;;15.20;34.20;;;;;;5034096;28;20453;-79
2022/04/17 11:37:52;;;;;;;0.60;0.50;;;15.00;33.30;;;;;;5034206;28;20427;-80
2022/04/17 11:40:21;;;;;;;0.40;0.30;;;14.90;35.50;;;;;;5034324;28;20442;-80
2022/04/17 11:42:49;;;;;;;0.67;0.50;;;14.80;35.60;;;;;;5034540;28;20535;-81
2022/04/17 11:45:17;;;;;;;0.30;0.20;;;14.90;35.60;;;;;;5033463;28;20489;-76
2022/04/17 11:47:46;;;;;;;0.40;0.33;;;15.00;36.30;;;;;;5033306;28;20482;-78
2022/04/17 11:50:21;;;;;;;0.70;0.50;;;15.10;35.80;;;;;;5033744;28;20446;-78
2022/04/17 11:52:52;;;;;;;0.30;0.30;;;15.10;35.90;;;;;;5033623;28;20439;-77
2022/04/17 11:55:24;;;;;;;0.63;0.50;;;15.30;36.70;;;;;;5033651;28;20445;-77
2022/04/17 11:57:51;;;;;;;0.50;0.43;;;15.30;35.20;;;;;;5033675;28;20449;-77
2022/04/17 12:00:18;;;;;;;0.30;0.30;;;15.00;35.70;;;;;;5033539;28;20442;-77
2022/04/17 12:02:45;;;;;;;0.50;0.40;;;15.00;36.80;;;;;;5033470;28;20462;-78
2022/04/17 12:05:14;;;;;;;0.93;0.40;;;15.00;36.30;;;;;;5033506;28;20442;-78
2022/04/17 12:07:42;;;;;;;0.30;0.30;;;14.90;37.10;;;;;;5033239;28;20482;-76
2022/04/17 12:10:11;;;;;;;0.30;0.30;;;15.00;37.50;;;;;;5033401;28;20469;-81
2022/04/17 12:12:39;;;;;;;0.40;0.30;;;15.00;38.70;;;;;;5033377;28;20892;-81
2022/04/17 12:15:07;;;;;;;0.40;0.30;;;15.00;39.10;;;;;;5033849;28;20447;-81
2022/04/17 12:17:35;;;;;;;0.40;0.40;;;15.00;39.20;;;;;;5033037;28;20791;-82
2022/04/17 12:20:06;;;;;;;1.13;0.60;;;15.20;39.70;;;;;;5033075;28;20450;-82
2022/04/17 12:22:34;;;;;;;0.50;0.40;;;15.10;39.30;;;;;;5031180;28;20467;-81
2022/04/17 12:25:01;;;;;;;0.40;0.40;;;15.00;40.20;;;;;;5032842;28;20443;-82
2022/04/17 12:27:28;;;;;;;0.50;0.50;;;14.90;40.30;;;;;;5033178;28;20497;-81
2022/04/17 12:29:56;;;;;;;0.40;0.30;;;14.80;39.90;;;;;;5033118;28;20442;-81
2022/04/17 12:32:24;;;;;;;0.50;0.40;;;14.90;39.80;;;;;;5033073;28;20486;-81
2022/04/17 12:34:59;;;;;;;0.30;0.30;;;14.90;41.60;;;;;;5033196;28;20454;-81
2022/04/17 12:37:28;;;;;;;0.40;0.40;;;14.90;41.20;;;;;;5033239;28;20435;-82
2022/04/17 12:40:09;;;;;;;0.60;0.60;;;14.60;40.70;;;;;;5033142;28;20450;-82
2022/04/17 12:42:35;;;;;;;1.37;0.53;;;14.50;41.30;;;;;;5033576;28;20466;-81
2022/04/17 12:45:02;;;;;;;0.40;0.30;;;14.40;40.90;;;;;;5035789;28;20462;-76
2022/04/17 12:47:29;;;;;;;0.47;0.30;;;14.30;41.30;;;;;;5035647;28;20507;-76
2022/04/17 12:50:03;;;;;;;0.30;0.30;;;14.20;42.10;;;;;;5036030;28;20447;-81
2022/04/17 12:52:30;;;;;;;0.40;0.30;;;14.20;42.00;;;;;;5036942;28;20478;-81
2022/04/17 12:54:59;;;;;;;0.40;0.30;;;14.10;42.40;;;;;;5036615;28;20942;-82
2022/04/17 12:57:27;;;;;;;0.30;0.30;;;14.00;43.40;;;;;;5035141;28;20439;-76
2022/04/17 12:59:55;;;;;;;0.40;0.33;;;14.00;43.00;;;;;;5035437;28;20438;-76
2022/04/17 13:02:25;;;;;;;0.40;0.30;;;14.10;43.70;;;;;;5035417;28;20466;-76
2022/04/17 13:04:54;;;;;;;0.47;0.47;;;14.00;43.30;;;;;;5035438;28;20823;-76
2022/04/17 13:07:21;;;;;;;0.40;0.40;;;14.00;43.80;;;;;;5034938;28;20474;-80
2022/04/17 13:09:52;;;;;;;0.43;0.43;;;14.10;43.70;;;;;;5034610;28;20447;-81
2022/04/17 13:12:34;;;;;;;0.87;0.40;;;14.10;42.30;;;;;;5034843;28;20469;-76